East Dundee, Illinois
Current Conditions -  °F | °C
As of 12:52 PM on Thursday 23 Oct 2014 (Local Time) from KDPA Reporting Station
Clear Clear  
Wind Chill: 58°   Ceiling: Unl
Heat Index: 58°   Visibility: 10mi
Dew Point: 43°   Wind: 12mph
Humidity: 58%   Direction: 190°S
Pressure: 30.13"   Gusts: 18mph
Location:  42.1081°N, 88.3234°W
Report Text: KDPA 231752Z 19010G16KT 10SM CLR 14/06 A3013 RMK AO2 SLP208 T01440061 10156 20017 58024
Loading
Personal Weather Stations






























Interactive Weather Map
Tropical Storm Tracking
New forecast layout! Learn more

10-Day Weather Forecast

Advertisements
Track Severe Weather on mobile